KAND/AND METAR and TAF weather

Enter ICAO airport designator
Station Type Date Time Source
KAND METAR 2023/02/05 13:56 UTC NOAA

KAND 051356Z AUTO 00000KT 10SM BKN023 04/M03 A3037 RMK AO2 SLP287 T00441033


Station Type Date Time Source
KAND Decoded METAR 2023/02/05 13:56 UTC NOAA

ANDERSON COUNTY AIRPORT, SC, United States (KAND) 34-30N 82-43W 239M
Feb 05, 2023 - 08:56 AM EST / 2023.02.05 1356 UTC
Wind: Calm:0
Visibility: 10 mile(s):0
Sky conditions: mostly cloudy
Temperature: 39.9 F (4.4 C)
Dew Point: 26.1 F (-3.3 C)
Relative Humidity: 57%
Pressure (altimeter): 30.37 in. Hg (1028 hPa)
ob: KAND 051356Z AUTO 00000KT 10SM BKN023 04/M03 A3037 RMK AO2 SLP287 T00441033
cycle: 14

Station Type Date Time Source
KAND TAF 2023/02/05 13:15 UTC NOAA

TAF
AMD KAND 051313Z 0513/0612 00000KT P6SM SCT030 BKN250
TEMPO 0513/0516 BKN030 OVC250
FM051600 25005KT P6SM BKN250
FM052000 25007KT P6SM BKN200
FM052300 24005KT P6SM SCT250
FM060900 31003KT P6SM SKC

Example: see airport list